createdAt,value
2022-07-30T00:01:55.450Z,22.60
2022-07-30T00:04:22.232Z,22.70
2022-07-30T00:06:49.023Z,22.50
2022-07-30T00:09:15.769Z,22.50
2022-07-30T00:11:42.556Z,22.50
2022-07-30T00:14:09.451Z,22.50
2022-07-30T00:16:36.546Z,22.50
2022-07-30T00:19:03.409Z,22.40
2022-07-30T00:21:35.682Z,22.30
2022-07-30T00:24:03.589Z,22.20
2022-07-30T00:26:30.309Z,22.30
2022-07-30T00:28:57.060Z,22.10
2022-07-30T00:31:23.869Z,22.10
2022-07-30T00:33:50.659Z,22.00
2022-07-30T00:36:17.605Z,21.90
2022-07-30T00:38:44.364Z,21.90
2022-07-30T00:41:11.166Z,21.90
2022-07-30T00:43:37.948Z,24.00
2022-07-30T00:46:04.742Z,21.90
2022-07-30T00:48:31.553Z,21.90
2022-07-30T00:50:58.294Z,22.10
2022-07-30T00:53:25.798Z,21.80
2022-07-30T00:55:52.547Z,21.80
2022-07-30T00:58:19.275Z,22.00
2022-07-30T01:00:46.087Z,21.70
2022-07-30T01:03:12.905Z,21.60
2022-07-30T01:05:39.648Z,22.00
2022-07-30T01:08:06.359Z,22.00
2022-07-30T01:10:33.089Z,21.70
2022-07-30T01:13:01.992Z,21.70
2022-07-30T01:15:28.823Z,21.60
2022-07-30T01:17:56.071Z,21.70
2022-07-30T01:20:30.206Z,21.50
2022-07-30T01:23:08.860Z,21.50
2022-07-30T01:25:54.488Z,21.80
2022-07-30T01:28:32.276Z,21.50
2022-07-30T01:30:59.184Z,21.40
2022-07-30T01:33:25.925Z,21.60
2022-07-30T01:35:53.023Z,21.50
2022-07-30T01:38:22.023Z,21.40
2022-07-30T01:40:49.835Z,21.70
2022-07-30T01:43:17.049Z,21.40
2022-07-30T01:45:44.422Z,21.50
2022-07-30T01:48:11.603Z,21.40
2022-07-30T01:50:38.636Z,21.40
2022-07-30T01:53:05.371Z,21.40
2022-07-30T01:55:36.016Z,21.40
2022-07-30T01:58:03.843Z,21.50
2022-07-30T02:00:30.987Z,21.60
2022-07-30T02:02:58.196Z,21.40
2022-07-30T02:05:24.915Z,21.60
2022-07-30T02:07:59.358Z,21.40
2022-07-30T02:10:31.321Z,21.30
2022-07-30T02:13:00.402Z,21.40
2022-07-30T02:15:35.120Z,21.40
2022-07-30T02:18:02.940Z,21.20
2022-07-30T02:20:31.889Z,21.20
2022-07-30T02:23:02.302Z,21.50
2022-07-30T02:25:29.116Z,21.50
2022-07-30T02:27:56.764Z,21.00
2022-07-30T02:30:24.192Z,21.20
2022-07-30T02:32:50.940Z,21.50
2022-07-30T02:35:18.822Z,21.40
2022-07-30T02:37:45.911Z,21.10
2022-07-30T02:40:14.825Z,21.40
2022-07-30T02:42:41.627Z,21.20
2022-07-30T02:45:08.529Z,21.20
2022-07-30T02:47:35.270Z,21.30
2022-07-30T02:50:01.999Z,21.30
2022-07-30T02:52:28.727Z,21.10
2022-07-30T02:54:55.857Z,21.30
2022-07-30T02:57:22.648Z,21.10
2022-07-30T02:59:49.375Z,21.10
2022-07-30T03:02:16.226Z,21.10
2022-07-30T03:04:43.629Z,21.30
2022-07-30T03:07:10.608Z,21.00
2022-07-30T03:09:52.201Z,21.30
2022-07-30T03:12:19.324Z,21.10
2022-07-30T03:14:46.092Z,21.20
2022-07-30T03:17:12.839Z,21.10
2022-07-30T03:19:39.701Z,21.00
2022-07-30T03:22:07.248Z,21.10
2022-07-30T03:24:34.051Z,21.30
2022-07-30T03:27:03.831Z,21.50
2022-07-30T03:29:30.825Z,21.70
2022-07-30T03:31:57.776Z,21.70
2022-07-30T03:34:27.057Z,21.90
2022-07-30T03:36:55.639Z,22.30
2022-07-30T03:39:22.426Z,22.30
2022-07-30T03:41:49.160Z,22.30
2022-07-30T03:44:15.983Z,22.20
2022-07-30T03:46:42.778Z,22.50
2022-07-30T03:49:10.040Z,22.40
2022-07-30T03:51:38.944Z,22.40
2022-07-30T03:54:13.404Z,22.00
2022-07-30T03:56:40.781Z,21.90
2022-07-30T03:59:07.601Z,22.10
2022-07-30T04:01:34.399Z,21.70
2022-07-30T04:04:05.029Z,21.80
2022-07-30T04:06:32.756Z,21.70
2022-07-30T04:08:59.522Z,21.40
2022-07-30T04:11:41.378Z,21.40
2022-07-30T04:14:08.920Z,21.40
2022-07-30T04:16:42.100Z,21.70
2022-07-30T04:19:10.954Z,21.60
2022-07-30T04:21:37.851Z,21.20
2022-07-30T04:24:05.759Z,21.20
2022-07-30T04:26:33.466Z,21.20
2022-07-30T04:29:00.257Z,21.30
2022-07-30T04:31:28.322Z,21.60
2022-07-30T04:33:55.145Z,22.00
2022-07-30T04:36:21.870Z,21.80
2022-07-30T04:38:48.593Z,21.90
2022-07-30T04:41:15.464Z,22.20
2022-07-30T04:43:42.193Z,22.10
2022-07-30T04:46:09.106Z,22.10
2022-07-30T04:48:35.931Z,22.60
2022-07-30T04:51:03.687Z,22.60
2022-07-30T04:53:30.694Z,22.50
2022-07-30T04:55:57.437Z,22.30
2022-07-30T04:58:24.227Z,22.00
2022-07-30T05:00:52.204Z,21.90
2022-07-30T05:03:18.947Z,21.70
2022-07-30T05:05:45.828Z,21.60
2022-07-30T05:08:12.568Z,21.70
2022-07-30T05:10:39.308Z,21.70
2022-07-30T05:13:10.708Z,21.40
2022-07-30T05:15:37.611Z,21.50
2022-07-30T05:18:04.447Z,21.40
2022-07-30T05:20:31.176Z,21.30
2022-07-30T05:22:58.057Z,21.20
2022-07-30T05:25:24.820Z,21.20
2022-07-30T05:27:52.631Z,21.10
2022-07-30T05:30:19.465Z,21.10
2022-07-30T05:32:51.994Z,21.10
2022-07-30T05:35:20.067Z,21.10
2022-07-30T05:37:46.794Z,21.30
2022-07-30T05:40:13.707Z,21.10
2022-07-30T05:42:40.452Z,21.10
2022-07-30T05:45:08.452Z,21.40
2022-07-30T05:47:35.193Z,21.50
2022-07-30T05:50:04.994Z,21.60
2022-07-30T05:52:32.521Z,21.70
2022-07-30T05:54:59.273Z,22.20
2022-07-30T05:57:26.046Z,22.20
2022-07-30T05:59:52.806Z,22.20
2022-07-30T06:02:19.574Z,22.30
2022-07-30T06:04:51.452Z,22.20
2022-07-30T06:07:18.283Z,22.30
2022-07-30T06:09:45.051Z,22.20
2022-07-30T06:12:11.798Z,22.20
2022-07-30T06:14:38.550Z,21.90
2022-07-30T06:17:05.353Z,22.00
2022-07-30T06:19:32.124Z,21.90
2022-07-30T06:22:06.419Z,21.50
2022-07-30T06:24:33.862Z,21.50
2022-07-30T06:27:00.870Z,21.70
2022-07-30T06:29:27.762Z,21.30
2022-07-30T06:31:54.551Z,21.60
2022-07-30T06:34:21.288Z,21.60
2022-07-30T06:36:48.450Z,21.70
2022-07-30T06:39:15.308Z,21.80
2022-07-30T06:42:02.040Z,22.40
2022-07-30T06:44:28.868Z,22.00
2022-07-30T06:46:55.600Z,22.40
2022-07-30T06:49:22.913Z,22.20
2022-07-30T06:51:49.738Z,22.30
2022-07-30T06:54:16.559Z,22.40
2022-07-30T06:56:43.758Z,22.40
2022-07-30T06:59:10.557Z,22.40
2022-07-30T07:01:37.390Z,22.50
2022-07-30T07:04:04.471Z,22.70
2022-07-30T07:06:31.289Z,22.50
2022-07-30T07:08:58.101Z,22.50
2022-07-30T07:11:24.935Z,22.60
2022-07-30T07:13:51.666Z,22.70
2022-07-30T07:16:21.806Z,22.60
2022-07-30T07:18:48.704Z,22.60
2022-07-30T07:21:15.600Z,22.60
2022-07-30T07:23:42.580Z,23.00
2022-07-30T07:26:09.619Z,22.70
2022-07-30T07:28:36.403Z,23.00
2022-07-30T07:31:03.472Z,22.70
2022-07-30T07:33:30.273Z,22.70
2022-07-30T07:35:57.002Z,22.90
2022-07-30T07:38:23.740Z,22.90
2022-07-30T07:40:50.477Z,22.70
2022-07-30T07:43:17.220Z,23.00
2022-07-30T07:45:44.116Z,22.50
2022-07-30T07:48:11.152Z,22.80
2022-07-30T07:50:38.211Z,23.00
2022-07-30T07:53:05.557Z,22.80
2022-07-30T07:55:32.884Z,22.80
2022-07-30T07:58:00.478Z,22.80
2022-07-30T08:00:27.197Z,22.70
2022-07-30T08:02:54.061Z,22.90
2022-07-30T08:05:20.843Z,22.80
2022-07-30T08:07:47.607Z,22.90
2022-07-30T08:10:16.138Z,22.80
2022-07-30T08:12:42.919Z,23.20
2022-07-30T08:15:09.942Z,22.90
2022-07-30T08:17:40.131Z,22.90
2022-07-30T08:20:07.086Z,23.00
2022-07-30T08:22:33.864Z,23.00
2022-07-30T08:25:00.787Z,22.90
2022-07-30T08:27:30.668Z,22.90
2022-07-30T08:29:58.039Z,23.00
2022-07-30T08:32:25.338Z,23.10
2022-07-30T08:34:52.080Z,23.00
2022-07-30T08:37:19.428Z,22.90
2022-07-30T08:39:46.207Z,22.90
2022-07-30T08:42:13.340Z,22.90
2022-07-30T08:44:40.115Z,23.00
2022-07-30T08:47:07.356Z,22.90
2022-07-30T08:49:34.587Z,22.90
2022-07-30T08:52:01.625Z,22.90
2022-07-30T08:54:28.462Z,22.90
2022-07-30T08:56:55.208Z,22.90
2022-07-30T08:59:23.395Z,23.00
2022-07-30T09:01:52.116Z,22.90
2022-07-30T09:04:18.887Z,23.30
2022-07-30T09:06:45.652Z,22.90
2022-07-30T09:09:12.398Z,23.00
2022-07-30T09:11:39.161Z,23.00
2022-07-30T09:14:14.939Z,22.90
2022-07-30T09:16:41.749Z,23.00
2022-07-30T09:19:14.594Z,23.10
2022-07-30T09:21:41.760Z,22.90
2022-07-30T09:24:10.116Z,23.20
2022-07-30T09:26:55.467Z,23.00
2022-07-30T09:29:22.992Z,23.20
2022-07-30T09:32:00.253Z,23.10
2022-07-30T09:34:30.854Z,23.30
2022-07-30T09:36:58.052Z,23.20
2022-07-30T09:39:37.852Z,23.20
2022-07-30T09:42:05.445Z,23.00
2022-07-30T09:44:32.365Z,23.10
2022-07-30T09:46:59.126Z,23.10
2022-07-30T09:49:26.661Z,23.20
2022-07-30T09:51:56.206Z,23.00
2022-07-30T09:54:23.637Z,23.00
2022-07-30T09:57:26.080Z,23.10
2022-07-30T09:59:57.789Z,23.00
2022-07-30T10:02:35.264Z,23.20
2022-07-30T10:05:10.008Z,23.10
2022-07-30T10:07:43.638Z,23.10
2022-07-30T10:10:10.643Z,23.10
2022-07-30T10:12:37.392Z,23.00
2022-07-30T10:15:06.204Z,23.10
2022-07-30T10:17:34.430Z,23.10
2022-07-30T10:20:03.143Z,23.30
2022-07-30T10:22:36.189Z,23.10
2022-07-30T10:25:03.363Z,23.10
2022-07-30T10:27:32.319Z,23.20
2022-07-30T10:29:59.065Z,23.20
2022-07-30T10:32:31.178Z,23.10
2022-07-30T10:34:58.315Z,23.10
2022-07-30T10:37:25.217Z,23.20
2022-07-30T10:39:54.872Z,23.20
2022-07-30T10:42:30.749Z,23.10
2022-07-30T10:45:17.668Z,23.30
2022-07-30T10:47:48.879Z,23.30
2022-07-30T10:50:26.952Z,23.30
2022-07-30T10:52:54.762Z,23.30
2022-07-30T10:55:36.859Z,23.20
2022-07-30T10:58:07.712Z,23.20
2022-07-30T11:00:35.543Z,23.30
2022-07-30T11:03:14.844Z,23.50
2022-07-30T11:05:45.246Z,23.40
2022-07-30T11:08:32.345Z,23.20
2022-07-30T11:11:19.467Z,23.20
2022-07-30T11:13:51.618Z,23.50
2022-07-30T11:16:20.721Z,23.20
2022-07-30T11:19:55.275Z,23.30
2022-07-30T11:22:25.726Z,23.20
2022-07-30T11:24:52.767Z,23.30
2022-07-30T11:27:38.775Z,23.20
2022-07-30T11:30:17.843Z,23.20
2022-07-30T11:32:48.590Z,23.40
2022-07-30T11:35:35.627Z,23.20
2022-07-30T11:38:04.969Z,23.30
2022-07-30T11:40:35.178Z,23.30
2022-07-30T11:43:18.137Z,23.40
2022-07-30T11:45:45.543Z,23.30
2022-07-30T11:48:13.060Z,23.20
2022-07-30T11:50:39.807Z,23.30
2022-07-30T11:53:07.763Z,23.40
2022-07-30T11:55:35.719Z,23.40
2022-07-30T11:58:04.005Z,23.40
2022-07-30T12:00:40.862Z,23.40
2022-07-30T12:03:14.720Z,23.40
2022-07-30T12:05:41.897Z,23.30
2022-07-30T12:08:08.925Z,23.50
2022-07-30T12:10:56.761Z,23.40
2022-07-30T12:13:44.863Z,23.40
2022-07-30T12:16:18.484Z,23.60
2022-07-30T12:18:45.822Z,23.50
2022-07-30T12:21:13.684Z,23.50
2022-07-30T12:23:43.346Z,23.50
2022-07-30T12:26:36.497Z,23.40
2022-07-30T12:29:05.000Z,23.40
2022-07-30T12:31:33.636Z,23.40
2022-07-30T12:34:00.796Z,23.40
2022-07-30T12:36:31.583Z,23.50
2022-07-30T12:38:58.452Z,23.40
2022-07-30T12:41:41.759Z,23.50
2022-07-30T12:44:08.529Z,23.50
2022-07-30T12:46:37.845Z,23.50
2022-07-30T12:49:16.087Z,23.60
2022-07-30T12:51:51.800Z,23.60
2022-07-30T12:54:19.487Z,23.60
2022-07-30T12:56:56.565Z,23.70
2022-07-30T12:59:23.380Z,23.50
2022-07-30T13:01:52.352Z,23.60
2022-07-30T13:04:19.211Z,23.50
2022-07-30T13:07:06.312Z,23.50
2022-07-30T13:09:33.060Z,23.50
2022-07-30T13:11:59.847Z,23.60
2022-07-30T13:14:27.284Z,23.70
2022-07-30T13:16:55.846Z,24.00
2022-07-30T13:19:22.620Z,23.60
2022-07-30T13:21:49.754Z,23.50
2022-07-30T13:24:18.187Z,23.50
2022-07-30T13:26:45.319Z,23.70
2022-07-30T13:29:13.616Z,23.50
2022-07-30T13:31:42.366Z,23.60
2022-07-30T13:34:10.316Z,23.60
2022-07-30T13:36:37.093Z,23.60
2022-07-30T13:39:03.889Z,23.90
2022-07-30T13:41:30.660Z,23.60
2022-07-30T13:43:57.464Z,23.60
2022-07-30T13:46:24.216Z,23.80
2022-07-30T13:48:51.035Z,23.70
2022-07-30T13:51:17.800Z,23.60
2022-07-30T13:53:44.578Z,23.70
2022-07-30T13:56:12.712Z,23.60
2022-07-30T13:58:40.129Z,23.60
2022-07-30T14:01:09.941Z,23.80
2022-07-30T14:03:49.394Z,24.00
2022-07-30T14:06:17.796Z,23.80
2022-07-30T14:08:44.563Z,23.60
2022-07-30T14:11:11.321Z,23.80
2022-07-30T14:13:38.143Z,23.90
2022-07-30T14:16:08.198Z,23.70
2022-07-30T14:18:44.835Z,23.60
2022-07-30T14:21:11.580Z,23.60
2022-07-30T14:23:38.950Z,23.70
2022-07-30T14:26:05.712Z,23.70
2022-07-30T14:28:32.459Z,23.80
2022-07-30T14:30:59.200Z,23.60
2022-07-30T14:33:25.911Z,23.90
2022-07-30T14:35:52.691Z,23.70
2022-07-30T14:38:19.416Z,24.00
2022-07-30T14:40:46.859Z,23.70
2022-07-30T14:43:14.749Z,23.80
2022-07-30T14:45:41.552Z,23.70
2022-07-30T14:48:08.293Z,23.70
2022-07-30T14:50:42.716Z,24.00
2022-07-30T14:53:22.484Z,24.00
2022-07-30T14:55:49.427Z,23.70
2022-07-30T14:58:16.172Z,23.70
2022-07-30T15:00:49.040Z,23.90
2022-07-30T15:03:15.956Z,23.70
2022-07-30T15:05:42.664Z,23.80
2022-07-30T15:08:09.463Z,23.80
2022-07-30T15:10:36.190Z,23.90
2022-07-30T15:13:03.879Z,23.80
2022-07-30T15:15:33.435Z,23.80
2022-07-30T15:18:05.074Z,23.80
2022-07-30T15:20:31.816Z,24.00
2022-07-30T15:22:58.536Z,23.80
2022-07-30T15:25:25.318Z,23.70
2022-07-30T15:27:52.093Z,23.90
2022-07-30T15:30:20.736Z,23.80
2022-07-30T15:32:47.571Z,23.90
2022-07-30T15:35:14.447Z,23.80
2022-07-30T15:37:41.289Z,23.90
2022-07-30T15:40:08.361Z,23.90
2022-07-30T15:42:35.176Z,23.80
2022-07-30T15:45:17.239Z,23.80
2022-07-30T15:47:45.009Z,24.00
2022-07-30T15:50:11.771Z,23.80
2022-07-30T15:52:38.754Z,23.80
2022-07-30T15:55:05.930Z,23.80
2022-07-30T15:57:32.792Z,23.80
2022-07-30T15:59:59.852Z,23.90
2022-07-30T16:02:26.644Z,23.90
2022-07-30T16:04:53.477Z,23.90
2022-07-30T16:07:20.238Z,23.80
2022-07-30T16:09:46.999Z,24.10
2022-07-30T16:12:13.776Z,24.00
2022-07-30T16:14:40.520Z,24.00
2022-07-30T16:17:13.139Z,24.00
2022-07-30T16:19:41.129Z,24.10
2022-07-30T16:22:11.784Z,23.90
2022-07-30T16:24:39.624Z,24.20
2022-07-30T16:27:06.364Z,23.90
2022-07-30T16:29:33.111Z,24.00
2022-07-30T16:32:00.193Z,23.90
2022-07-30T16:34:27.191Z,24.00
2022-07-30T16:36:53.959Z,24.00
2022-07-30T16:39:20.783Z,24.10
2022-07-30T16:41:47.552Z,24.00
2022-07-30T16:44:14.300Z,24.20
2022-07-30T16:46:41.089Z,23.90
2022-07-30T16:49:08.179Z,24.00
2022-07-30T16:51:35.394Z,24.00
2022-07-30T16:54:02.240Z,24.10
2022-07-30T16:56:29.029Z,24.00
2022-07-30T16:58:55.824Z,24.00
2022-07-30T17:01:22.628Z,24.00
2022-07-30T17:03:49.388Z,24.40
2022-07-30T17:06:16.131Z,24.20
2022-07-30T17:08:42.939Z,24.10
2022-07-30T17:11:11.037Z,23.90
2022-07-30T17:13:57.179Z,24.00
2022-07-30T17:16:23.959Z,24.20
2022-07-30T17:18:50.691Z,24.00
2022-07-30T17:21:17.650Z,24.00
2022-07-30T17:23:44.404Z,24.20
2022-07-30T17:26:11.404Z,24.00
2022-07-30T17:28:38.188Z,24.00
2022-07-30T17:31:05.316Z,24.30
2022-07-30T17:33:32.132Z,24.20
2022-07-30T17:35:58.864Z,24.30
2022-07-30T17:38:28.181Z,24.00
2022-07-30T17:40:54.944Z,24.20
2022-07-30T17:43:21.821Z,24.00
2022-07-30T17:45:48.568Z,24.10
2022-07-30T17:48:15.299Z,24.00
2022-07-30T17:50:42.041Z,23.90
2022-07-30T17:53:08.786Z,24.30
2022-07-30T17:55:35.631Z,24.10
2022-07-30T17:58:03.405Z,24.30
2022-07-30T18:00:30.157Z,24.10
2022-07-30T18:02:56.947Z,24.10
2022-07-30T18:05:23.693Z,24.10
2022-07-30T18:07:50.685Z,24.10
2022-07-30T18:10:17.419Z,24.10
2022-07-30T18:12:49.185Z,24.10
2022-07-30T18:15:17.388Z,24.20
2022-07-30T18:17:44.732Z,24.10
2022-07-30T18:20:11.596Z,24.10
2022-07-30T18:22:38.348Z,24.10
2022-07-30T18:25:07.856Z,24.30
2022-07-30T18:27:34.727Z,24.10
2022-07-30T18:30:01.471Z,24.10
2022-07-30T18:32:28.552Z,24.20
2022-07-30T18:34:55.329Z,24.30
2022-07-30T18:37:22.052Z,24.10
2022-07-30T18:39:48.819Z,24.20
2022-07-30T18:42:15.556Z,24.10
2022-07-30T18:44:42.300Z,24.10
2022-07-30T18:47:09.102Z,24.30
2022-07-30T18:49:37.548Z,24.10
2022-07-30T18:52:05.819Z,24.40
2022-07-30T18:54:32.929Z,24.20
2022-07-30T18:56:59.668Z,24.40
2022-07-30T18:59:26.460Z,24.10
2022-07-30T19:01:53.795Z,24.10
2022-07-30T19:04:20.556Z,24.30
2022-07-30T19:06:47.427Z,26.20
2022-07-30T19:09:17.595Z,24.30
2022-07-30T19:11:45.279Z,24.20
2022-07-30T19:14:13.265Z,24.30
2022-07-30T19:16:40.475Z,24.20
2022-07-30T19:19:07.224Z,24.30
2022-07-30T19:21:33.999Z,24.30
2022-07-30T19:24:00.966Z,24.20
2022-07-30T19:26:28.637Z,24.20
2022-07-30T19:28:55.368Z,24.20
2022-07-30T19:31:22.130Z,24.20
2022-07-30T19:33:49.367Z,24.20
2022-07-30T19:36:19.057Z,24.20
2022-07-30T19:38:45.813Z,24.30
2022-07-30T19:41:14.012Z,24.30
2022-07-30T19:43:40.924Z,25.80
2022-07-30T19:46:08.158Z,24.40
2022-07-30T19:48:37.491Z,24.40
2022-07-30T19:51:04.484Z,24.40
2022-07-30T19:53:34.463Z,24.30
2022-07-30T19:56:03.238Z,24.40
2022-07-30T19:58:30.776Z,24.30
2022-07-30T20:00:57.500Z,24.10
2022-07-30T20:03:25.684Z,24.30
2022-07-30T20:05:59.434Z,24.60
2022-07-30T20:08:27.268Z,24.40
2022-07-30T20:10:57.803Z,24.40
2022-07-30T20:13:45.034Z,24.50
2022-07-30T20:16:16.068Z,24.30
2022-07-30T20:18:42.982Z,24.30
2022-07-30T20:21:15.192Z,24.30
2022-07-30T20:23:42.893Z,24.50
2022-07-30T20:26:12.966Z,24.30
2022-07-30T20:28:41.090Z,24.40
2022-07-30T20:31:08.724Z,24.30
2022-07-30T20:33:37.893Z,24.30
2022-07-30T20:36:24.133Z,24.30
2022-07-30T20:38:51.281Z,24.40
2022-07-30T20:41:18.128Z,24.30
2022-07-30T20:43:45.932Z,24.50
2022-07-30T20:46:18.196Z,24.30
2022-07-30T20:48:46.161Z,24.30
2022-07-30T20:51:13.261Z,24.50
2022-07-30T20:53:41.886Z,24.60
2022-07-30T20:56:12.408Z,24.30
2022-07-30T20:58:40.733Z,24.60
2022-07-30T21:01:07.865Z,24.50
2022-07-30T21:03:34.663Z,24.70
2022-07-30T21:06:02.932Z,24.40
2022-07-30T21:08:31.435Z,24.50
2022-07-30T21:11:00.088Z,24.50
2022-07-30T21:13:27.093Z,24.50
2022-07-30T21:16:02.788Z,24.70
2022-07-30T21:18:30.752Z,24.40
2022-07-30T21:20:57.725Z,24.50
2022-07-30T21:23:24.715Z,24.70
2022-07-30T21:26:02.070Z,24.40
2022-07-30T21:28:30.178Z,24.40
2022-07-30T21:31:02.533Z,24.50
2022-07-30T21:33:31.239Z,24.40
2022-07-30T21:35:59.007Z,24.50
2022-07-30T21:38:26.739Z,24.50
2022-07-30T21:40:53.564Z,24.50
2022-07-30T21:43:29.589Z,24.60
2022-07-30T21:45:57.634Z,24.70
2022-07-30T21:48:24.631Z,24.60
2022-07-30T21:50:52.057Z,24.50
2022-07-30T21:53:29.926Z,24.50
2022-07-30T21:56:05.652Z,24.70
2022-07-30T21:58:32.633Z,24.50
2022-07-30T22:01:01.078Z,24.70
2022-07-30T22:04:01.241Z,24.50
2022-07-30T22:06:29.914Z,24.80
2022-07-30T22:08:56.902Z,24.50
2022-07-30T22:11:23.651Z,24.50
2022-07-30T22:13:53.614Z,24.50
2022-07-30T22:16:21.889Z,24.60
2022-07-30T22:18:48.674Z,24.50
2022-07-30T22:21:15.426Z,24.50
2022-07-30T22:23:54.954Z,24.50
2022-07-30T22:26:26.595Z,24.50
2022-07-30T22:28:54.293Z,24.60
2022-07-30T22:31:21.358Z,24.50
2022-07-30T22:33:49.874Z,24.50
2022-07-30T22:36:18.910Z,24.60
2022-07-30T22:38:58.482Z,24.70
2022-07-30T22:41:26.388Z,24.50
2022-07-30T22:43:57.889Z,24.50
2022-07-30T22:46:30.478Z,24.60
2022-07-30T22:48:58.040Z,24.60
2022-07-30T22:51:26.279Z,24.70
2022-07-30T22:54:13.474Z,24.60
2022-07-30T22:56:40.664Z,24.50
2022-07-30T22:59:07.457Z,24.60
2022-07-30T23:01:34.227Z,24.60
2022-07-30T23:04:01.570Z,24.50
2022-07-30T23:06:30.199Z,24.70
2022-07-30T23:08:57.057Z,24.60
2022-07-30T23:11:23.803Z,24.60
2022-07-30T23:13:53.854Z,24.70
2022-07-30T23:16:20.667Z,24.50
2022-07-30T23:18:47.538Z,24.50
2022-07-30T23:21:15.057Z,24.80
2022-07-30T23:23:41.809Z,24.50
2022-07-30T23:26:08.774Z,24.70
2022-07-30T23:28:36.926Z,24.60
2022-07-30T23:31:04.307Z,24.60
2022-07-30T23:33:31.217Z,24.60
2022-07-30T23:36:00.207Z,24.80
2022-07-30T23:38:27.126Z,24.60
2022-07-30T23:40:54.080Z,24.30
2022-07-30T23:43:20.822Z,24.30
2022-07-30T23:45:47.567Z,24.30
2022-07-30T23:48:15.097Z,24.00
2022-07-30T23:50:41.889Z,23.70
2022-07-30T23:53:08.611Z,23.80
2022-07-30T23:55:36.140Z,23.70
2022-07-30T23:58:03.328Z,23.70
